Time;durP1;ratioP1;P1;durP2;ratioP2;P2;SDS_P1;SDS_P2;PMS_P1;PMS_P2;Temp;Humidity;BMP_temperature;BMP_pressure;BME280_temperature;BME280_humidity;BME280_pressure;Samples;Min_cycle;Max_cycle;Signal;HPM_P1;HPM_P2
2023/12/04 00:01:08;;;;;;;5.00;4.55;;;0.20;99.90;;;;;;5032526;28;20160;-66
2023/12/04 00:03:34;;;;;;;5.28;4.78;;;0.10;99.90;;;;;;5032411;28;20139;-67
2023/12/04 00:06:00;;;;;;;4.75;4.35;;;0.20;99.90;;;;;;5032342;28;20069;-67
2023/12/04 00:08:25;;;;;;;5.22;4.72;;;0.10;99.90;;;;;;5032188;28;20037;-65
2023/12/04 00:10:51;;;;;;;4.50;4.10;;;0.20;99.90;;;;;;5032261;28;20044;-68
2023/12/04 00:13:17;;;;;;;5.07;4.65;;;0.20;99.90;;;;;;5032291;28;20057;-65
2023/12/04 00:15:44;;;;;;;5.22;4.78;;;0.20;99.90;;;;;;5030699;28;20044;-65
2023/12/04 00:18:09;;;;;;;5.25;4.82;;;0.20;99.90;;;;;;5032302;28;20593;-66
2023/12/04 00:20:36;;;;;;;5.10;4.70;;;0.70;99.90;;;;;;5032172;28;20149;-67
2023/12/04 00:23:02;;;;;;;4.63;4.22;;;0.20;99.90;;;;;;5032237;28;20050;-67
2023/12/04 00:25:28;;;;;;;5.78;5.28;;;0.20;99.90;;;;;;5030859;28;20056;-67
2023/12/04 00:27:54;;;;;;;5.47;4.97;;;0.20;99.90;;;;;;5031881;28;20477;-66
2023/12/04 00:30:19;;;;;;;5.25;4.80;;;0.20;99.90;;;;;;5031855;28;20029;-67
2023/12/04 00:32:45;;;;;;;4.95;4.45;;;0.20;99.90;;;;;;5031916;28;20500;-67
2023/12/04 00:35:11;;;;;;;5.55;5.05;;;0.10;99.90;;;;;;5031774;28;20049;-66
2023/12/04 00:37:38;;;;;;;4.43;3.58;;;0.10;99.90;;;;;;5032039;28;20056;-65
2023/12/04 00:40:05;;;;;;;4.60;4.20;;;0.10;99.90;;;;;;5030503;28;20543;-65
2023/12/04 00:42:31;;;;;;;4.43;4.03;;;0.20;99.90;;;;;;5031999;28;20044;-66
2023/12/04 00:44:57;;;;;;;5.15;4.65;;;0.20;99.90;;;;;;5031991;28;20037;-65
2023/12/04 00:47:22;;;;;;;4.35;3.95;;;0.10;99.90;;;;;;5031945;28;20041;-65
2023/12/04 00:49:48;;;;;;;4.22;3.83;;;0.10;99.90;;;;;;5031985;28;20048;-65
2023/12/04 00:52:13;;;;;;;4.75;4.35;;;0.10;99.90;;;;;;5031832;28;20037;-67
2023/12/04 00:54:40;;;;;;;4.55;4.15;;;0.10;99.90;;;;;;5031916;28;20037;-66
2023/12/04 00:57:06;;;;;;;4.95;4.45;;;0.10;99.90;;;;;;5031854;28;20530;-65
2023/12/04 00:59:32;;;;;;;4.40;4.00;;;0.10;99.90;;;;;;5031851;28;20049;-66
2023/12/04 01:01:58;;;;;;;4.35;3.95;;;0.10;99.90;;;;;;5030566;28;20045;-65
2023/12/04 01:04:23;;;;;;;4.43;4.03;;;0.20;99.90;;;;;;5031540;28;20029;-65
2023/12/04 01:06:49;;;;;;;4.53;4.13;;;0.20;99.90;;;;;;5031762;28;20037;-65
2023/12/04 01:09:15;;;;;;;4.00;3.70;;;0.80;99.90;;;;;;5031757;28;20067;-65
2023/12/04 01:11:40;;;;;;;4.95;4.55;;;0.10;99.90;;;;;;5030645;28;20434;-65
2023/12/04 01:14:06;;;;;;;4.15;3.75;;;0.20;99.90;;;;;;5031733;28;20033;-65
2023/12/04 01:16:32;;;;;;;4.82;4.38;;;0.10;99.90;;;;;;5031618;28;20049;-65
2023/12/04 01:18:57;;;;;;;4.43;4.03;;;0.20;99.90;;;;;;5031774;28;20131;-66
2023/12/04 01:21:23;;;;;;;4.40;4.00;;;0.20;99.90;;;;;;5031635;28;20536;-66
2023/12/04 01:23:48;;;;;;;4.13;3.72;;;0.20;99.90;;;;;;5031662;28;20059;-67
2023/12/04 01:26:14;;;;;;;5.05;4.45;;;0.20;99.90;;;;;;5031308;28;20148;-66
2023/12/04 01:28:40;;;;;;;4.57;4.18;;;0.20;99.90;;;;;;5031728;28;20046;-66
2023/12/04 01:31:06;;;;;;;4.63;4.22;;;0.20;99.90;;;;;;5032088;28;20400;-67
2023/12/04 01:33:32;;;;;;;4.43;4.03;;;0.20;99.90;;;;;;5035277;28;20123;-68
2023/12/04 01:35:57;;;;;;;4.57;4.18;;;0.20;99.90;;;;;;5034939;28;20513;-66
2023/12/04 01:38:23;;;;;;;5.07;4.40;;;0.20;99.90;;;;;;5035110;28;20436;-66
2023/12/04 01:40:49;;;;;;;4.47;4.07;;;0.20;99.90;;;;;;5033886;28;20048;-66
2023/12/04 01:43:14;;;;;;;5.13;4.65;;;0.20;99.90;;;;;;5034821;28;20037;-66
2023/12/04 01:45:41;;;;;;;5.60;5.10;;;0.20;99.90;;;;;;5035080;28;20044;-67
2023/12/04 01:48:08;;;;;;;4.00;3.70;;;0.20;99.90;;;;;;5035057;28;20383;-66
2023/12/04 01:50:36;;;;;;;4.63;4.22;;;0.20;99.90;;;;;;5034943;28;20057;-65
2023/12/04 01:53:02;;;;;;;3.95;3.65;;;0.20;99.90;;;;;;5034607;28;20068;-66
2023/12/04 01:55:29;;;;;;;4.57;4.18;;;0.20;99.90;;;;;;5034911;28;20060;-66
2023/12/04 01:57:56;;;;;;;4.75;4.35;;;0.20;99.90;;;;;;5034743;28;20038;-65
2023/12/04 02:00:21;;;;;;;4.40;4.07;;;0.20;99.90;;;;;;5034794;28;20537;-65
2023/12/04 02:02:47;;;;;;;4.65;4.25;;;0.20;99.90;;;;;;5034641;28;20128;-65
2023/12/04 02:05:15;;;;;;;4.75;4.35;;;0.20;99.90;;;;;;5034667;28;20059;-66
2023/12/04 02:07:41;;;;;;;4.75;4.35;;;0.20;99.90;;;;;;5034685;28;20440;-66
2023/12/04 02:10:08;;;;;;;4.57;4.18;;;0.20;99.90;;;;;;5032959;28;20421;-66
2023/12/04 02:12:35;;;;;;;4.35;3.95;;;0.20;99.90;;;;;;5033378;28;20120;-65
2023/12/04 02:15:01;;;;;;;4.75;4.35;;;0.20;99.90;;;;;;5034469;28;20029;-65
2023/12/04 02:17:27;;;;;;;4.30;3.90;;;0.20;99.90;;;;;;5034085;28;20037;-66
2023/12/04 02:19:54;;;;;;;4.25;3.85;;;0.20;99.90;;;;;;5034389;28;20034;-65
2023/12/04 02:22:20;;;;;;;4.20;3.80;;;0.20;99.90;;;;;;5034355;28;20044;-65
2023/12/04 02:24:46;;;;;;;4.82;4.40;;;0.20;99.90;;;;;;5034291;28;20497;-65
2023/12/04 02:27:25;;;;;;;4.63;4.22;;;0.20;99.90;;;;;;5034238;28;20104;-65
2023/12/04 02:29:58;;;;;;;4.25;3.85;;;0.20;99.90;;;;;;5034156;28;20041;-65
2023/12/04 02:32:27;;;;;;;4.10;3.70;;;0.20;99.90;;;;;;5034153;28;20037;-65
2023/12/04 02:34:54;;;;;;;4.72;4.32;;;0.20;99.90;;;;;;5033882;28;20397;-65
2023/12/04 02:37:22;;;;;;;4.30;3.90;;;0.30;99.90;;;;;;5033898;28;20374;-65
2023/12/04 02:39:49;;;;;;;4.53;4.13;;;0.20;99.90;;;;;;5033768;28;20041;-67
2023/12/04 02:42:17;;;;;;;4.32;3.92;;;0.20;99.90;;;;;;5033281;28;20037;-66
2023/12/04 02:44:42;;;;;;;5.15;4.65;;;0.50;99.90;;;;;;5033006;28;20049;-66
2023/12/04 02:47:08;;;;;;;4.63;4.22;;;0.30;99.90;;;;;;5033856;28;20053;-67
2023/12/04 02:49:34;;;;;;;3.75;3.45;;;0.30;99.90;;;;;;5033742;28;20477;-66
2023/12/04 02:51:59;;;;;;;4.65;4.25;;;0.30;99.90;;;;;;5033473;28;20069;-66
2023/12/04 02:54:25;;;;;;;4.30;3.90;;;0.30;99.90;;;;;;5033635;28;20068;-67
2023/12/04 02:56:51;;;;;;;4.10;3.70;;;0.30;99.90;;;;;;5033440;28;20473;-67
2023/12/04 02:59:16;;;;;;;4.43;4.03;;;1.00;99.90;;;;;;5033711;28;20084;-66
2023/12/04 03:01:42;;;;;;;4.53;4.13;;;0.30;99.90;;;;;;5033574;28;20485;-66
2023/12/04 03:04:08;;;;;;;4.50;4.10;;;0.30;99.90;;;;;;5033124;28;20081;-66
2023/12/04 03:06:33;;;;;;;4.63;4.22;;;0.30;99.90;;;;;;5033366;28;20034;-66
2023/12/04 03:08:59;;;;;;;4.40;4.00;;;0.40;99.90;;;;;;5033394;28;20033;-67
2023/12/04 03:11:25;;;;;;;4.60;4.20;;;0.30;99.90;;;;;;5033433;28;20125;-66
2023/12/04 03:13:51;;;;;;;4.10;3.75;;;0.50;99.90;;;;;;5033294;28;20112;-66
2023/12/04 03:16:19;;;;;;;4.50;3.75;;;0.30;99.90;;;;;;5033279;28;20041;-66
2023/12/04 03:18:45;;;;;;;5.18;4.68;;;0.30;99.90;;;;;;5033136;28;20041;-66
2023/12/04 03:21:11;;;;;;;4.57;4.18;;;0.30;99.90;;;;;;5032894;28;20044;-66
2023/12/04 03:23:37;;;;;;;4.68;4.28;;;0.30;99.90;;;;;;5033159;28;20037;-66
2023/12/04 03:26:03;;;;;;;4.18;3.78;;;0.30;99.90;;;;;;5033133;28;20037;-66
2023/12/04 03:28:28;;;;;;;4.88;4.47;;;0.30;99.90;;;;;;5033156;28;20454;-66
2023/12/04 03:30:54;;;;;;;4.15;3.75;;;0.40;99.90;;;;;;5033032;28;20087;-66
2023/12/04 03:33:20;;;;;;;3.92;3.53;;;0.30;99.90;;;;;;5032982;28;20367;-66
2023/12/04 03:35:46;;;;;;;4.55;4.15;;;1.00;99.90;;;;;;5032683;28;20096;-66
2023/12/04 03:38:12;;;;;;;4.78;4.32;;;0.40;99.90;;;;;;5033095;28;20057;-66
2023/12/04 03:40:37;;;;;;;4.45;4.05;;;0.40;99.90;;;;;;5032907;28;20034;-66
2023/12/04 03:43:03;;;;;;;3.78;3.42;;;0.40;99.90;;;;;;5032831;28;20065;-66
2023/12/04 03:45:29;;;;;;;5.00;4.60;;;0.40;99.90;;;;;;5032786;28;20033;-66
2023/12/04 03:47:54;;;;;;;4.97;4.57;;;0.40;99.90;;;;;;5032727;28;20473;-66
2023/12/04 03:50:20;;;;;;;4.88;4.47;;;0.50;99.90;;;;;;5032543;28;20034;-65
2023/12/04 03:52:45;;;;;;;4.35;3.95;;;0.40;99.90;;;;;;5032695;28;20041;-66
2023/12/04 03:55:11;;;;;;;4.57;4.18;;;0.40;99.90;;;;;;5032147;28;20033;-65
2023/12/04 03:57:37;;;;;;;4.25;3.88;;;0.40;99.90;;;;;;5032196;28;20096;-65
2023/12/04 04:00:03;;;;;;;4.63;4.22;;;0.50;99.90;;;;;;5032634;28;20099;-66
2023/12/04 04:02:29;;;;;;;4.90;4.50;;;0.40;99.90;;;;;;5032182;28;20077;-66
2023/12/04 04:04:55;;;;;;;4.32;3.92;;;0.40;99.90;;;;;;5032746;28;20080;-67
2023/12/04 04:07:20;;;;;;;4.03;3.63;;;0.40;99.90;;;;;;5032367;28;20117;-66
2023/12/04 04:09:46;;;;;;;4.70;4.30;;;0.50;99.90;;;;;;5032608;28;20509;-66
2023/12/04 04:12:12;;;;;;;4.68;4.28;;;1.00;99.90;;;;;;5031155;28;20132;-67
2023/12/04 04:14:38;;;;;;;4.13;3.83;;;0.50;99.90;;;;;;5032371;28;20111;-66
2023/12/04 04:17:04;;;;;;;4.57;4.18;;;0.50;99.90;;;;;;5032183;28;20034;-66
2023/12/04 04:19:29;;;;;;;4.35;3.95;;;0.50;99.90;;;;;;5032042;28;20070;-66
2023/12/04 04:21:55;;;;;;;4.57;4.18;;;0.40;99.90;;;;;;5032324;28;20051;-65
2023/12/04 04:24:21;;;;;;;4.50;4.10;;;0.40;99.90;;;;;;5032213;28;20091;-65
2023/12/04 04:26:46;;;;;;;4.45;4.05;;;0.50;99.90;;;;;;5032100;28;20520;-65
2023/12/04 04:29:13;;;;;;;5.03;4.53;;;0.40;99.90;;;;;;5032169;28;20081;-65
2023/12/04 04:31:38;;;;;;;4.60;4.20;;;0.50;99.90;;;;;;5030966;28;20048;-66
2023/12/04 04:34:04;;;;;;;4.07;3.78;;;0.50;99.90;;;;;;5032094;28;20485;-65
2023/12/04 04:36:29;;;;;;;3.95;3.63;;;0.40;99.90;;;;;;5031784;28;20409;-65
2023/12/04 04:38:55;;;;;;;4.72;4.32;;;0.50;99.90;;;;;;5031959;28;20041;-65
2023/12/04 04:41:21;;;;;;;4.47;4.07;;;0.40;99.90;;;;;;5032109;28;20496;-65
2023/12/04 04:43:46;;;;;;;4.00;3.67;;;0.50;99.90;;;;;;5030510;28;20122;-65
2023/12/04 04:46:13;;;;;;;4.88;4.43;;;0.50;99.90;;;;;;5032036;28;20104;-65
2023/12/04 04:48:40;;;;;;;4.20;3.80;;;0.50;99.90;;;;;;5031990;28;20056;-65
2023/12/04 04:51:06;;;;;;;4.10;3.70;;;0.50;99.90;;;;;;5032045;28;20413;-65
2023/12/04 04:53:32;;;;;;;4.57;4.18;;;0.50;99.90;;;;;;5031904;28;20049;-65
2023/12/04 04:55:57;;;;;;;3.88;3.58;;;0.50;99.90;;;;;;5031641;28;20072;-65
2023/12/04 04:58:23;;;;;;;4.35;3.95;;;1.00;99.90;;;;;;5031476;28;20092;-65
2023/12/04 05:00:49;;;;;;;3.88;3.58;;;0.40;99.90;;;;;;5031644;28;20087;-65
2023/12/04 05:03:14;;;;;;;4.35;3.95;;;0.40;99.90;;;;;;5030546;28;20038;-65
2023/12/04 05:05:40;;;;;;;4.45;4.05;;;0.40;99.90;;;;;;5031884;28;20072;-65
2023/12/04 05:08:05;;;;;;;3.70;3.40;;;0.40;99.90;;;;;;5035503;28;20038;-65
2023/12/04 05:10:31;;;;;;;3.83;3.53;;;0.40;99.90;;;;;;5035745;28;20128;-65
2023/12/04 05:12:57;;;;;;;4.43;4.03;;;0.40;99.90;;;;;;5035650;28;20076;-66
2023/12/04 05:15:22;;;;;;;4.43;4.03;;;0.50;99.90;;;;;;5035606;28;20477;-65
2023/12/04 05:17:48;;;;;;;4.50;4.05;;;0.50;99.90;;;;;;5035513;28;20044;-65
2023/12/04 05:20:14;;;;;;;4.20;3.80;;;0.50;99.90;;;;;;5035541;28;20428;-65
2023/12/04 05:22:40;;;;;;;3.97;3.65;;;0.40;99.90;;;;;;5035622;28;20045;-65
2023/12/04 05:25:06;;;;;;;3.90;3.50;;;0.50;99.90;;;;;;5035501;28;20037;-65
2023/12/04 05:27:32;;;;;;;4.70;4.30;;;0.50;99.90;;;;;;5035363;28;20398;-65
2023/12/04 05:29:57;;;;;;;3.97;3.67;;;0.50;99.90;;;;;;5034069;28;20068;-65
2023/12/04 05:32:23;;;;;;;3.90;3.60;;;0.50;99.90;;;;;;5033849;28;20043;-66
2023/12/04 05:34:49;;;;;;;4.50;4.10;;;0.50;99.90;;;;;;5034839;28;20099;-66
2023/12/04 05:37:14;;;;;;;3.65;3.35;;;0.50;99.90;;;;;;5035182;28;20041;-66
2023/12/04 05:39:41;;;;;;;4.32;3.92;;;0.50;99.90;;;;;;5035200;28;20029;-67
2023/12/04 05:42:07;;;;;;;4.32;3.92;;;0.50;99.90;;;;;;5035322;28;20047;-65
2023/12/04 05:44:34;;;;;;;4.30;3.72;;;0.50;99.90;;;;;;5035129;28;20037;-65
2023/12/04 05:47:00;;;;;;;4.35;3.95;;;0.50;99.90;;;;;;5034793;28;20064;-65
2023/12/04 05:49:25;;;;;;;4.15;3.85;;;0.50;99.90;;;;;;5034937;28;20030;-65
2023/12/04 05:51:51;;;;;;;4.93;4.53;;;0.50;99.90;;;;;;5034963;28;20033;-67
2023/12/04 05:54:17;;;;;;;4.00;3.60;;;0.50;99.90;;;;;;5034942;28;20065;-66
2023/12/04 05:56:42;;;;;;;4.38;3.97;;;0.50;99.90;;;;;;5034649;28;20092;-66
2023/12/04 05:59:08;;;;;;;4.32;3.92;;;0.50;99.90;;;;;;5034789;28;20083;-66
2023/12/04 06:01:34;;;;;;;3.72;3.42;;;0.50;99.90;;;;;;5034618;28;20038;-67
2023/12/04 06:03:59;;;;;;;4.55;4.15;;;0.50;99.90;;;;;;5034652;28;20042;-66
2023/12/04 06:06:25;;;;;;;3.97;3.65;;;0.50;99.90;;;;;;5034552;28;20055;-66
2023/12/04 06:08:51;;;;;;;4.00;3.65;;;0.50;99.90;;;;;;5034287;28;20047;-67
2023/12/04 06:11:16;;;;;;;3.65;3.35;;;0.50;99.90;;;;;;5034640;28;20037;-66
2023/12/04 06:13:42;;;;;;;3.70;3.40;;;0.50;99.90;;;;;;5034109;28;20114;-67
2023/12/04 06:16:08;;;;;;;4.15;3.85;;;0.60;99.90;;;;;;5034570;28;20433;-66
2023/12/04 06:18:34;;;;;;;3.60;3.30;;;0.50;99.90;;;;;;5034254;28;20041;-67
2023/12/04 06:20:59;;;;;;;4.32;3.92;;;0.60;99.90;;;;;;5034463;28;20482;-68
2023/12/04 06:23:25;;;;;;;4.05;3.75;;;0.60;99.90;;;;;;5034364;28;20045;-67
2023/12/04 06:25:51;;;;;;;3.72;3.40;;;0.60;99.90;;;;;;5034382;28;20037;-72
2023/12/04 06:28:17;;;;;;;3.60;3.30;;;0.60;99.90;;;;;;5034280;28;20052;-74
2023/12/04 06:30:43;;;;;;;4.20;3.80;;;0.60;99.90;;;;;;5032722;28;20041;-73
2023/12/04 06:33:09;;;;;;;3.90;3.42;;;0.60;99.90;;;;;;5033103;28;20052;-70
2023/12/04 06:35:35;;;;;;;3.78;3.40;;;0.70;99.90;;;;;;5032510;28;20094;-67
2023/12/04 06:38:06;;;;;;;3.78;3.47;;;0.60;99.90;;;;;;5034056;28;20481;-69
2023/12/04 06:40:32;;;;;;;4.18;3.78;;;0.60;99.90;;;;;;5016343;28;20524;-65
2023/12/04 06:42:58;;;;;;;4.07;3.78;;;0.60;99.90;;;;;;5033786;28;20120;-65
2023/12/04 06:45:25;;;;;;;4.05;3.67;;;0.60;99.90;;;;;;5033933;28;20113;-68
2023/12/04 06:47:51;;;;;;;4.28;3.88;;;0.60;99.90;;;;;;5033927;28;20052;-66
2023/12/04 06:50:16;;;;;;;4.05;3.65;;;0.60;99.90;;;;;;5033900;28;20511;-67
2023/12/04 06:52:43;;;;;;;3.92;3.55;;;0.60;99.90;;;;;;5033827;28;20045;-67
2023/12/04 06:55:08;;;;;;;3.42;3.13;;;0.60;99.90;;;;;;5033771;28;20048;-67
2023/12/04 06:57:34;;;;;;;4.13;3.72;;;0.60;99.90;;;;;;5033274;28;20485;-69
2023/12/04 07:00:00;;;;;;;4.10;3.70;;;0.50;99.90;;;;;;5033694;28;20076;-77
2023/12/04 07:02:26;;;;;;;4.45;4.05;;;0.50;99.90;;;;;;5016012;28;20045;-66
2023/12/04 07:04:51;;;;;;;3.85;3.55;;;0.50;99.90;;;;;;5033306;28;20197;-65
2023/12/04 07:07:17;;;;;;;3.97;3.67;;;0.50;99.90;;;;;;5033537;28;20048;-66
2023/12/04 07:09:43;;;;;;;3.80;3.50;;;0.50;99.90;;;;;;5033519;28;20038;-65
2023/12/04 07:12:08;;;;;;;3.60;3.30;;;0.50;99.90;;;;;;5033244;28;20045;-65
2023/12/04 07:14:34;;;;;;;3.28;2.97;;;0.50;99.90;;;;;;5033143;28;20112;-65
2023/12/04 07:17:00;;;;;;;3.78;3.47;;;0.50;99.90;;;;;;5033273;28;20496;-65
2023/12/04 07:19:26;;;;;;;4.10;3.47;;;0.50;99.90;;;;;;5033046;28;20504;-65
2023/12/04 07:21:52;;;;;;;4.10;3.70;;;0.50;99.90;;;;;;5033105;28;20068;-65
2023/12/04 07:24:18;;;;;;;3.38;3.08;;;0.50;99.90;;;;;;5033311;28;20038;-65
2023/12/04 07:26:44;;;;;;;4.10;3.70;;;0.50;99.90;;;;;;5032932;28;20053;-65
2023/12/04 07:29:10;;;;;;;3.97;3.42;;;0.50;99.90;;;;;;5032654;28;20037;-65
2023/12/04 07:31:37;;;;;;;4.30;3.90;;;0.60;99.90;;;;;;5031459;28;20073;-65
2023/12/04 07:34:03;;;;;;;3.95;3.55;;;0.60;99.90;;;;;;5031522;28;20515;-65
2023/12/04 07:36:29;;;;;;;4.18;3.78;;;0.60;99.90;;;;;;5032463;28;20088;-65
2023/12/04 07:38:54;;;;;;;4.05;3.70;;;0.60;99.90;;;;;;5031608;28;20130;-65
2023/12/04 07:41:21;;;;;;;3.92;3.58;;;0.60;99.90;;;;;;5033075;28;20038;-65
2023/12/04 07:43:47;;;;;;;3.50;3.20;;;0.60;99.90;;;;;;5031426;28;20087;-65
2023/12/04 07:46:13;;;;;;;3.20;2.92;;;0.60;99.90;;;;;;5032508;28;20029;-65
2023/12/04 07:48:39;;;;;;;3.30;3.00;;;0.60;99.90;;;;;;5032575;28;20105;-65
2023/12/04 07:51:07;;;;;;;2.72;2.53;;;0.60;99.90;;;;;;5032722;28;20421;-65
2023/12/04 07:53:32;;;;;;;2.90;2.70;;;0.70;99.90;;;;;;5032789;28;20077;-64
2023/12/04 07:56:03;;;;;;;3.72;3.42;;;0.60;99.90;;;;;;5032696;28;20069;-65
2023/12/04 07:58:28;;;;;;;3.50;3.20;;;0.60;99.90;;;;;;5032617;28;20041;-65
2023/12/04 08:00:54;;;;;;;3.60;3.10;;;0.70;99.90;;;;;;5032593;28;20113;-68
2023/12/04 08:03:20;;;;;;;3.33;3.03;;;0.70;99.90;;;;;;5031021;28;20521;-66
2023/12/04 08:05:45;;;;;;;3.40;3.10;;;0.70;99.90;;;;;;5032578;28;20366;-67
2023/12/04 08:08:11;;;;;;;3.65;3.33;;;0.70;99.90;;;;;;5032176;28;20037;-65
2023/12/04 08:10:37;;;;;;;3.20;2.90;;;0.70;99.90;;;;;;5032430;28;20087;-68
2023/12/04 08:13:02;;;;;;;3.55;3.25;;;0.90;99.90;;;;;;5032179;28;20045;-67
2023/12/04 08:15:28;;;;;;;3.15;2.85;;;0.70;99.90;;;;;;5032429;28;20120;-74
2023/12/04 08:17:55;;;;;;;3.58;3.28;;;0.70;99.90;;;;;;5030661;28;20069;-69
2023/12/04 08:20:22;;;;;;;3.78;3.47;;;0.70;99.90;;;;;;5032074;28;20433;-65
2023/12/04 08:22:48;;;;;;;3.00;2.80;;;0.70;99.90;;;;;;5032454;28;20049;-67
2023/12/04 08:25:13;;;;;;;3.33;3.03;;;0.70;99.90;;;;;;5032259;28;20045;-64
2023/12/04 08:27:39;;;;;;;3.20;2.90;;;0.80;99.90;;;;;;5032332;28;20037;-65
2023/12/04 08:30:06;;;;;;;3.42;3.13;;;0.70;99.90;;;;;;5032173;28;20521;-64
2023/12/04 08:32:31;;;;;;;2.78;2.50;;;0.80;99.90;;;;;;5030645;28;20056;-70
2023/12/04 08:34:57;;;;;;;3.03;2.72;;;0.90;99.90;;;;;;5030741;28;20041;-64
2023/12/04 08:37:23;;;;;;;2.75;2.55;;;0.80;99.90;;;;;;5031835;28;20045;-66
2023/12/04 08:39:48;;;;;;;3.15;2.88;;;0.90;99.90;;;;;;5032153;28;20041;-64
2023/12/04 08:42:14;;;;;;;2.92;2.72;;;0.80;99.90;;;;;;5033096;28;20486;-64
2023/12/04 08:44:40;;;;;;;2.67;2.47;;;0.80;99.90;;;;;;5036117;28;20653;-67
2023/12/04 08:47:06;;;;;;;2.67;2.47;;;0.80;99.90;;;;;;5034943;28;20069;-70
2023/12/04 08:49:32;;;;;;;3.03;2.70;;;0.80;99.90;;;;;;5034539;28;20041;-64
2023/12/04 08:51:58;;;;;;;2.97;2.65;;;0.80;99.90;;;;;;5036260;28;20088;-65
2023/12/04 08:54:24;;;;;;;2.70;2.50;;;0.90;99.90;;;;;;5034740;28;20072;-65
2023/12/04 08:56:50;;;;;;;3.10;2.80;;;0.90;99.90;;;;;;5035957;28;20077;-69
2023/12/04 08:59:16;;;;;;;3.05;2.80;;;0.90;99.90;;;;;;5035954;28;20073;-66
2023/12/04 09:01:43;;;;;;;2.90;2.65;;;1.00;99.90;;;;;;5017937;28;20132;-65
2023/12/04 09:04:09;;;;;;;3.30;3.00;;;0.90;99.90;;;;;;5035793;28;20045;-65
2023/12/04 09:06:35;;;;;;;3.22;2.92;;;0.90;99.90;;;;;;5034459;28;20049;-65
2023/12/04 09:09:02;;;;;;;2.70;2.50;;;1.00;99.90;;;;;;5035718;28;20080;-65
2023/12/04 09:11:28;;;;;;;3.17;2.88;;;1.00;99.90;;;;;;5034524;28;20121;-65
2023/12/04 09:13:54;;;;;;;2.60;2.40;;;1.30;99.90;;;;;;5035593;28;20072;-65
2023/12/04 09:16:20;;;;;;;2.58;2.38;;;1.00;99.90;;;;;;5035521;28;20065;-65
2023/12/04 09:18:46;;;;;;;2.85;2.58;;;1.10;99.90;;;;;;5035463;28;20116;-65
2023/12/04 09:21:12;;;;;;;2.92;2.55;;;1.10;99.90;;;;;;5035219;28;20049;-66
2023/12/04 09:23:37;;;;;;;3.22;2.92;;;1.10;99.90;;;;;;5035583;28;20509;-65
2023/12/04 09:26:03;;;;;;;2.42;2.22;;;1.50;99.90;;;;;;5035497;28;20121;-66
2023/12/04 09:28:29;;;;;;;2.60;2.40;;;1.20;99.90;;;;;;5035463;28;20080;-68
2023/12/04 09:30:54;;;;;;;2.50;2.30;;;1.20;99.90;;;;;;5035476;28;20477;-65
2023/12/04 09:33:23;;;;;;;2.65;2.42;;;1.70;99.90;;;;;;5035271;28;20041;-65
2023/12/04 09:35:49;;;;;;;4.15;2.55;;;1.20;99.90;;;;;;5017125;28;20515;-64
2023/12/04 09:38:14;;;;;;;2.45;2.25;;;1.30;99.90;;;;;;5035142;28;20049;-64
2023/12/04 09:40:40;;;;;;;2.05;1.95;;;1.30;99.90;;;;;;5035222;28;20436;-64
2023/12/04 09:43:06;;;;;;;2.50;2.30;;;1.40;99.90;;;;;;5035154;28;20412;-65
2023/12/04 09:45:33;;;;;;;2.90;2.60;;;1.90;99.90;;;;;;5035190;28;20494;-65
2023/12/04 09:47:59;;;;;;;2.50;2.30;;;1.40;99.90;;;;;;5035125;28;20046;-64
2023/12/04 09:50:25;;;;;;;2.28;2.03;;;1.40;99.90;;;;;;5033760;28;20091;-64
2023/12/04 09:52:52;;;;;;;2.45;2.25;;;1.40;99.90;;;;;;5034466;28;20104;-64
2023/12/04 09:55:18;;;;;;;3.00;2.70;;;1.50;99.90;;;;;;5034700;28;20544;-64
2023/12/04 09:57:45;;;;;;;2.15;1.70;;;1.50;99.90;;;;;;5034491;28;20073;-71
2023/12/04 10:00:13;;;;;;;2.38;2.17;;;1.90;99.90;;;;;;5033203;28;20033;-64
2023/12/04 10:02:40;;;;;;;2.60;2.40;;;1.50;99.90;;;;;;5034729;28;20108;-65
2023/12/04 10:05:07;;;;;;;2.33;2.13;;;1.60;99.90;;;;;;5034752;28;20390;-65
2023/12/04 10:07:32;;;;;;;2.15;1.88;;;1.60;99.90;;;;;;5034731;28;20570;-65
2023/12/04 10:09:58;;;;;;;1.90;1.80;;;1.60;99.90;;;;;;5034378;28;20045;-65
2023/12/04 10:12:25;;;;;;;2.85;2.65;;;1.70;99.90;;;;;;5034585;28;20045;-65
2023/12/04 10:15:05;;;;;;;2.15;1.98;;;1.70;99.90;;;;;;5034635;28;20040;-64
2023/12/04 10:17:37;;;;;;;2.25;2.08;;;1.70;99.90;;;;;;5032795;28;20060;-65
2023/12/04 10:20:11;;;;;;;2.67;2.47;;;1.70;99.90;;;;;;5034413;28;20045;-65
2023/12/04 10:22:56;;;;;;;3.10;2.35;;;1.70;99.90;;;;;;5034176;28;20417;-65
2023/12/04 10:25:22;;;;;;;2.10;1.90;;;1.70;99.90;;;;;;5034338;28;20041;-68
2023/12/04 10:27:47;;;;;;;2.10;1.90;;;1.80;99.90;;;;;;5033961;28;20049;-64
2023/12/04 10:30:31;;;;;;;2.30;2.10;;;1.80;99.90;;;;;;5034268;28;20045;-64
2023/12/04 10:33:06;;;;;;;2.05;1.85;;;1.80;99.90;;;;;;5034213;28;20102;-64
2023/12/04 10:35:36;;;;;;;1.80;1.70;;;1.80;99.90;;;;;;5034021;28;20629;-64
2023/12/04 10:38:02;;;;;;;2.03;1.90;;;1.80;99.90;;;;;;5034143;28;20049;-65
2023/12/04 10:40:33;;;;;;;1.98;1.75;;;1.90;99.90;;;;;;5034142;28;20501;-64
2023/12/04 10:43:21;;;;;;;2.00;1.90;;;1.80;99.90;;;;;;5034290;28;20477;-64
2023/12/04 10:45:48;;;;;;;1.90;1.80;;;1.80;99.90;;;;;;5034306;28;20045;-64
2023/12/04 10:48:15;;;;;;;2.20;2.00;;;1.80;99.90;;;;;;5033952;28;20592;-64
2023/12/04 10:50:43;;;;;;;1.80;1.70;;;1.80;99.90;;;;;;5034005;28;20600;-64
2023/12/04 10:53:11;;;;;;;2.17;1.98;;;2.40;99.90;;;;;;5033925;28;20049;-64
2023/12/04 10:55:37;;;;;;;2.17;1.98;;;1.80;99.90;;;;;;5033886;28;20060;-64
2023/12/04 10:58:06;;;;;;;2.30;2.00;;;1.80;99.90;;;;;;5032157;28;20046;-64
2023/12/04 11:00:38;;;;;;;2.30;2.10;;;1.80;99.90;;;;;;5033724;28;20049;-64
2023/12/04 11:03:08;;;;;;;2.30;2.10;;;1.80;99.90;;;;;;5033768;28;20523;-64
2023/12/04 11:05:38;;;;;;;2.30;2.10;;;1.90;99.90;;;;;;5032909;28;20025;-64
2023/12/04 11:08:07;;;;;;;1.70;1.60;;;1.90;99.90;;;;;;5033320;28;20046;-64
2023/12/04 11:10:35;;;;;;;1.90;1.80;;;1.90;99.90;;;;;;5033527;28;20103;-64
2023/12/04 11:13:12;;;;;;;2.33;2.13;;;1.90;99.90;;;;;;5033670;28;20408;-63
2023/12/04 11:15:45;;;;;;;1.80;1.70;;;1.90;99.90;;;;;;5033226;28;20041;-63
2023/12/04 11:18:15;;;;;;;2.30;2.10;;;1.90;99.90;;;;;;5033147;28;20133;-65
2023/12/04 11:21:03;;;;;;;2.03;1.83;;;1.90;99.90;;;;;;5031792;28;20095;-64
2023/12/04 11:23:31;;;;;;;2.47;1.95;;;2.00;99.90;;;;;;5033373;28;20440;-66
2023/12/04 11:25:57;;;;;;;1.90;1.80;;;2.00;99.90;;;;;;5033343;28;20119;-70
2023/12/04 11:28:24;;;;;;;2.85;2.03;;;2.00;99.90;;;;;;5031586;28;20037;-64
2023/12/04 11:30:50;;;;;;;2.15;1.95;;;2.20;99.90;;;;;;5033142;28;20451;-64
2023/12/04 11:33:16;;;;;;;2.10;1.90;;;2.00;99.90;;;;;;5033079;28;20042;-64
2023/12/04 11:35:41;;;;;;;2.60;2.33;;;2.00;99.90;;;;;;5032871;28;20442;-64
2023/12/04 11:38:09;;;;;;;1.95;1.80;;;2.00;99.90;;;;;;5032907;28;20140;-64
2023/12/04 11:40:36;;;;;;;2.35;2.15;;;2.00;99.90;;;;;;5032754;28;20038;-63
2023/12/04 11:43:21;;;;;;;2.42;2.22;;;2.10;99.90;;;;;;5032999;28;20048;-63
2023/12/04 11:45:49;;;;;;;2.13;1.92;;;2.10;99.90;;;;;;5033028;28;20464;-63
2023/12/04 11:48:14;;;;;;;2.10;1.90;;;2.40;99.90;;;;;;5031271;28;20056;-63
2023/12/04 11:50:40;;;;;;;2.30;2.10;;;2.10;99.90;;;;;;5032851;28;20043;-63
2023/12/04 11:53:06;;;;;;;2.03;1.83;;;2.20;99.90;;;;;;5032840;28;20040;-63
2023/12/04 11:55:38;;;;;;;2.35;2.15;;;2.20;99.90;;;;;;5032736;28;20045;-64
2023/12/04 11:58:12;;;;;;;1.90;1.80;;;2.20;99.90;;;;;;5032622;28;20064;-64
2023/12/04 12:00:38;;;;;;;2.00;1.90;;;2.20;99.90;;;;;;5032445;28;20056;-64
2023/12/04 12:03:06;;;;;;;2.30;1.75;;;2.40;99.90;;;;;;5032359;28;20038;-63
2023/12/04 12:05:33;;;;;;;1.80;1.70;;;2.30;99.90;;;;;;5032668;28;20026;-64
2023/12/04 12:08:02;;;;;;;2.20;2.00;;;2.30;99.90;;;;;;5032378;28;20087;-63
2023/12/04 12:10:29;;;;;;;1.60;1.50;;;2.40;99.90;;;;;;5032478;28;20064;-63
2023/12/04 12:12:56;;;;;;;2.10;1.90;;;2.40;99.90;;;;;;5032508;28;20132;-63
2023/12/04 12:15:22;;;;;;;1.90;1.80;;;2.30;99.90;;;;;;5031945;28;20040;-63
2023/12/04 12:17:49;;;;;;;1.98;1.80;;;2.40;99.90;;;;;;5032320;28;20060;-64
2023/12/04 12:20:15;;;;;;;2.25;1.95;;;2.40;99.90;;;;;;5032108;28;20128;-64
2023/12/04 12:22:43;;;;;;;1.80;1.70;;;2.40;99.90;;;;;;5032542;28;20517;-64
2023/12/04 12:25:10;;;;;;;2.00;1.80;;;2.40;99.90;;;;;;5032137;28;20045;-63
2023/12/04 12:27:36;;;;;;;2.08;1.88;;;2.50;99.90;;;;;;5032315;28;20116;-63
2023/12/04 12:30:04;;;;;;;2.17;1.98;;;2.50;99.90;;;;;;5031957;28;20041;-64
2023/12/04 12:32:33;;;;;;;2.10;1.90;;;2.60;99.90;;;;;;5031860;28;20084;-63
2023/12/04 12:34:59;;;;;;;1.85;1.75;;;2.60;99.90;;;;;;5031643;28;20037;-64
2023/12/04 12:37:25;;;;;;;2.60;2.40;;;2.60;99.90;;;;;;5032014;28;20045;-64
2023/12/04 12:39:52;;;;;;;2.00;1.80;;;2.70;99.90;;;;;;5032083;28;20037;-64
2023/12/04 12:42:22;;;;;;;1.73;1.63;;;2.70;99.90;;;;;;5031819;28;20052;-65
2023/12/04 12:44:48;;;;;;;3.13;2.10;;;2.70;99.90;;;;;;5031819;28;20045;-64
2023/12/04 12:47:15;;;;;;;2.10;1.90;;;3.40;99.90;;;;;;5032005;28;20386;-64
2023/12/04 12:49:41;;;;;;;1.70;1.60;;;2.70;99.90;;;;;;5031967;28;20041;-64
2023/12/04 12:52:10;;;;;;;1.90;1.80;;;2.70;99.90;;;;;;5031990;28;20499;-63
2023/12/04 12:54:44;;;;;;;2.17;1.98;;;2.70;99.90;;;;;;5030670;28;20041;-64